Atlantic - Newfoundland: Past 24 Hour Conditions

 

Grand Étang

12:00 AM ADT 21 September 2014
This table is a summary of hourly weather conditions for the past 24 hours.
Date / Time
(ADT)
Wind(knots) Conditions Visibility(km) Pressure(kPa) Air tempC) Relative humidity(%) Dew pointC)
21 September 2014
0:00 S 14 gust 24 N/A N/A 101.9 15 72 10
20 September 2014
23:00 SSW 17 gust 24 N/A N/A 101.9 15 69 10
22:00 S 14 gust 22 N/A N/A 101.9 15 63 8
21:00 S 16 gust 26 N/A N/A 101.9 15 63 8
20:00 S 15 gust 26 N/A N/A 102.0 15 65 9
19:00 S 12 gust 23 N/A N/A 102.0 15 62 8
18:00 SSW 18 gust 31 N/A N/A 102.1 15 60 8
17:00 SSW 17 gust 25 N/A N/A 102.1 16 59 8
16:00 SSW 24 gust 29 N/A N/A 102.1 17 53 7
15:00 SSW 24 gust 29 N/A N/A 102.3 15 53 6
14:00 SSW 17 gust 25 N/A N/A 102.2 15 51 5
13:00 SSW 25 gust 32 N/A N/A 102.4 14 48 3
12:00 SSW 23 gust 29 N/A N/A 102.5 14 43 1
11:00 SSW 22 gust 29 N/A N/A 102.5 13 42 0
10:00 SSW 19 gust 24 N/A N/A 102.6 13 57 5
9:00 SSW 15 gust 23 N/A N/A 102.6 12 53 3
8:00 SW 15 N/A N/A 102.7 12 61 5
7:00 WSW 16 N/A N/A 102.7 12 54 3
6:00 WSW 17 gust 22 N/A N/A 102.7 12 52 2
5:00 WSW 20 N/A N/A 102.7 12 55 3
4:00 WSW 15 gust 21 N/A N/A 102.7 12 61 4
3:00 WSW 16 N/A N/A 102.7 12 63 5
2:00 W 15 N/A N/A 102.6 12 64 5
1:00 WNW 14 gust 19 N/A N/A 102.6 11 61 4
0:00 WNW 15 N/A N/A 102.6 11 61 4
 
Map of Atlantic - Newfoundland marine weather areas Southwestern Grand Banks - 44138 Banquereau - 44139 Tail of the Bank - 44140 Nickerson Bank - 44251 Northeast Burgeo Bank - 44255 Blanc-Sablon Airport Cap Whittle Chevery Natashquan Airport Heath Point Miscou Island Grand Étang Ingonish Beach North Mountain St.Paul Island J.A. Douglas McCurdy Sydney Airport Charlottetown Airport East Point North Cape Argentia Bonavista Burgeo Cape Race Corner Brook Daniel's Harbour Englee Ferolle Point La Scie Port aux Basques Rocky Harbour Sagona Island St. Anthony Airport St. John's Int'l Airport St. Lawrence Stephenville Airport Twillingate Winterland Wreckhouse Cartwright Airport Mary's Harbour Grates Cove Pool's Island Marticot Island Long Pond Îles de la Madeleine Airport
Legend: buoyBuoy land stationLand Station